Saturday, January 20, 2018, 3:33 AM GMT
Back to Local

CWWE, Western Head, N. S.

Location: , , Canada Lat: 43.983
Local Time: 3:33 AM GMT ( 3:33 GMT) Lon: -64.667
Time Zone: GMT Elev: 29 ft

Show me the last for .
Show Coded

Time T Td Feel RH Dir Speed Gust Alt SLP Vis Weather Sky Remarks
2018-01-20 03:00 21 19 15 92 270° 5 - - 29.93 0 None
2018-01-20 02:00 21 20 15 94 260° 5 - - 29.93 0 None
2018-01-20 01:00 22 19 15 88 270° 6 - - 29.92 0 None
2018-01-20 00:00 19 18 11 95 260° 6 - - 29.93 0 None
2018-01-19 23:00 18 19 13 100 260° 3 - - 29.91 0 None
2018-01-19 22:00 22 18 17 85 300° 3 - - 29.90 0 None
2018-01-19 21:00 26 20 17 78 310° 8 - - 29.89 0 None
2018-01-19 20:00 27 21 19 77 300° 8 - - 29.87 0 None
2018-01-19 19:00 28 22 22 79 300° 6 - - 29.86 0 None
2018-01-19 18:00 27 22 20 80 310° 6 - - 29.86 0 None
2018-01-19 17:00 27 21 20 77 300° 7 - - 29.85 0 None
2018-01-19 16:00 29 21 23 71 300° 5 - - 29.86 0 None
2018-01-19 15:00 28 20 25 71 50° 3 - - 29.88 0 None
2018-01-19 14:00 23 19 17 85 350° 5 - - 29.87 0 None
2018-01-19 13:00 21 18 12 88 320° 7 - - 29.87 0 None
2018-01-19 12:00 17 16 7 96 320° 7 - - 29.85 0 None
2018-01-19 11:00 18 17 7 94 320° 9 - - 29.83 0 None
2018-01-19 10:00 19 16 10 90 320° 7 - - 29.80 0 None
2018-01-19 09:00 22 19 8 87 350° 9 17 - 29.77 0 None
2018-01-19 08:00 20 19 11 92 340° 8 - - 29.78 0 None
2018-01-19 07:00 21 19 10 94 330° 10 - - 29.79 0 None
2018-01-19 06:00 22 21 14 94 360° 7 - - 29.78 0 None
2018-01-19 05:00 24 22 15 94 350° 8 - - 29.77 0 None
2018-01-19 04:00 26 22 17 84 350° 8 - - 29.77 0 None

Support USWX by starting your Amazon purchase here.